Terminal Aerodrome Forecast
Issued by NWS Cleveland, OH

Home | Current Version | Previous Version | Text Only | Print | Product List | Glossary Off
Versions: 1 2 3 4 5 6 7 8 9 10 11 12 13 14 15 16 17 18 19 20 21 22 23 24 25 26

617
FTUS41 KCLE 301001 AAB
TAFCLE
TAF AMD
KCLE 301001Z 3010/0112 05005KT P6SM SCT200
     FM301700 05008KT P6SM BKN035
      TEMPO 3017/3018 BKN030
     FM302300 06008KT 6SM -RA OVC040
     FM010300 10010KT 3SM -RA OVC010
     FM010700 13010KT 5SM -RA OVC020=

USA.gov is the U.S. government's official web portal to all federal, state and local government web resources and services.